Vanini, Brazil
Current Conditions -  °F | °C
As of 9:00 PM on Tuesday 25 Nov 2014 (Local Time) from SBPF Reporting Station
Few Clouds Few Clouds  
Wind Chill: 72°   Ceiling: Unl
Heat Index: 72°   Visibility: 6mi
Dew Point: 61°   Wind: 0mph
Humidity: 69%   Direction: NA
Pressure: 29.83"   Gusts: NA
Location:  28.48°S, 51.84°W
Report Text: SBPF 252300Z 00000KT 9999 FEW045 22/16 Q1010
Loading
Personal Weather Stations






























Interactive Weather Map New forecast layout! Learn more

10-Day Weather Forecast

Advertisements
Track Severe Weather on mobile